createdAt,value
2018-04-14T00:02:27.636Z,22.8
2018-04-14T00:12:26.777Z,22.8
2018-04-14T00:22:26.063Z,22.8
2018-04-14T00:32:25.213Z,22.8
2018-04-14T00:42:24.422Z,22.7
2018-04-14T00:52:23.698Z,22.7
2018-04-14T01:02:23.145Z,22.7
2018-04-14T01:12:22.189Z,22.6
2018-04-14T01:22:21.282Z,22.6
2018-04-14T01:32:20.545Z,22.6
2018-04-14T01:42:19.724Z,22.6
2018-04-14T01:52:18.932Z,22.6
2018-04-14T02:02:18.183Z,22.5
2018-04-14T02:12:17.342Z,22.4
2018-04-14T02:22:16.556Z,22.4
2018-04-14T02:32:15.774Z,22.4
2018-04-14T02:42:15.034Z,22.4
2018-04-14T02:52:14.272Z,22.3
2018-04-14T03:02:13.778Z,22.1
2018-04-14T03:12:12.628Z,21.9
2018-04-14T03:22:11.848Z,21.8
2018-04-14T03:32:11.144Z,21.6
2018-04-14T03:42:10.331Z,21.5
2018-04-14T03:52:09.490Z,21.4
2018-04-14T04:02:08.988Z,21.3
2018-04-14T04:12:07.901Z,21.2
2018-04-14T04:22:07.112Z,21.1
2018-04-14T04:32:06.324Z,21
2018-04-14T04:42:05.831Z,20.9
2018-04-14T04:52:04.769Z,21
2018-04-14T05:02:04.007Z,21.2
2018-04-14T05:12:03.170Z,21.3
2018-04-14T05:22:02.736Z,21.6
2018-04-14T05:32:01.613Z,21.8
2018-04-14T05:42:00.855Z,22
2018-04-14T05:52:00.027Z,22.3
2018-04-14T06:01:59.283Z,22.4
2018-04-14T06:11:58.450Z,22.5
2018-04-14T06:21:58.028Z,22.7
2018-04-14T06:31:56.884Z,22.8
2018-04-14T06:41:56.145Z,22.9
2018-04-14T06:51:55.327Z,23.1
2018-04-14T07:01:54.573Z,23.3
2018-04-14T07:11:53.742Z,23.4
2018-04-14T07:21:52.963Z,23.5
2018-04-14T07:31:52.181Z,23.6
2018-04-14T07:41:51.454Z,23.7
2018-04-14T07:51:50.604Z,23.8
2018-04-14T08:01:49.827Z,23.9
2018-04-14T08:11:49.104Z,24.1
2018-04-14T08:21:48.562Z,24.3
2018-04-14T08:31:47.493Z,24.4
2018-04-14T08:41:46.697Z,24.5
2018-04-14T08:51:45.908Z,24.6
2018-04-14T09:01:45.191Z,24.6
2018-04-14T09:11:44.349Z,24.6
2018-04-14T09:21:43.611Z,24.7
2018-04-14T09:31:43.060Z,24.8
2018-04-14T09:41:42.000Z,24.8
2018-04-14T09:51:41.218Z,24.9
2018-04-14T10:01:40.440Z,24.9
2018-04-14T10:11:39.956Z,24.9
2018-04-14T10:21:38.872Z,24.9
2018-04-14T10:31:38.151Z,24.9
2018-04-14T10:41:37.310Z,24.9
2018-04-14T10:51:36.533Z,24.9
2018-04-14T11:01:35.752Z,24.9
2018-04-14T11:11:34.966Z,24.9
2018-04-14T11:21:34.182Z,25
2018-04-14T11:31:33.682Z,25.1
2018-04-14T11:41:32.687Z,25.1
2018-04-14T11:51:31.840Z,25.2
2018-04-14T12:01:31.063Z,25.1
2018-04-14T12:11:30.546Z,25.1
2018-04-14T12:21:29.480Z,25.1
2018-04-14T12:31:28.748Z,25
2018-04-14T12:41:27.917Z,25.1
2018-04-14T12:51:27.135Z,25.1
2018-04-14T13:01:26.344Z,25
2018-04-14T13:11:25.613Z,24.9
2018-04-14T13:21:24.778Z,24.9
2018-04-14T13:31:24.340Z,24.9
2018-04-14T13:41:23.213Z,24.9
2018-04-14T13:51:22.436Z,24.9
2018-04-14T14:01:21.652Z,24.8
2018-04-14T14:11:20.852Z,24.7
2018-04-14T14:21:20.069Z,24.6
2018-04-14T14:31:19.338Z,24.5
2018-04-14T14:41:18.522Z,24.4
2018-04-14T14:51:17.771Z,24.5
2018-04-14T15:01:16.931Z,24.5
2018-04-14T15:11:16.148Z,24.4
2018-04-14T15:21:15.370Z,24.4
2018-04-14T15:31:14.592Z,24.3
2018-04-14T15:41:13.795Z,24.2
2018-04-14T15:51:13.063Z,24.1
2018-04-14T16:01:12.512Z,24
2018-04-14T16:11:11.537Z,23.9
2018-04-14T16:21:10.655Z,23.8
2018-04-14T16:31:10.172Z,23.8
2018-04-14T16:41:09.107Z,23.8
2018-04-14T16:51:08.316Z,23.8
2018-04-14T17:01:07.517Z,23.7
2018-04-14T17:11:06.737Z,23.7
2018-04-14T17:21:05.965Z,23.7
2018-04-14T17:31:05.232Z,23.6
2018-04-14T17:41:04.379Z,23.6
2018-04-14T17:51:03.597Z,23.6
2018-04-14T18:01:02.814Z,23.6
2018-04-14T18:11:02.366Z,23.6
2018-04-14T18:21:01.258Z,23.6
2018-04-14T18:31:00.465Z,23.7
2018-04-14T18:40:59.684Z,23.8
2018-04-14T18:50:58.912Z,23.8
2018-04-14T19:00:58.126Z,23.9
2018-04-14T19:10:57.335Z,23.9
2018-04-14T19:20:56.609Z,23.9
2018-04-14T19:30:55.768Z,23.9
2018-04-14T19:40:55.059Z,23.9
2018-04-14T19:50:54.224Z,23.9
2018-04-14T20:00:53.707Z,23.9
2018-04-14T20:10:52.640Z,23.8
2018-04-14T20:20:51.857Z,23.8
2018-04-14T20:30:51.134Z,23.8
2018-04-14T20:40:50.587Z,23.7
2018-04-14T20:50:49.574Z,23.7
2018-04-14T21:00:48.748Z,23.6
2018-04-14T21:10:47.951Z,23.6
2018-04-14T21:20:47.450Z,23.6
2018-04-14T21:30:46.383Z,23.6
2018-04-14T21:40:45.602Z,23.5
2018-04-14T21:50:44.883Z,23.4
2018-04-14T22:00:44.036Z,23.4
2018-04-14T22:10:43.255Z,23.4
2018-04-14T22:20:42.487Z,23.3
2018-04-14T22:30:41.692Z,23.3
2018-04-14T22:40:40.928Z,23.3
2018-04-14T22:50:40.422Z,23.3
2018-04-14T23:00:39.343Z,23.2
2018-04-14T23:10:38.560Z,23.2
2018-04-14T23:20:37.778Z,23.2
2018-04-14T23:30:37.007Z,23.2
2018-04-14T23:40:36.276Z,23.2
2018-04-14T23:50:35.438Z,23.2
